Time;durP1;ratioP1;P1;durP2;ratioP2;P2;SDS_P1;SDS_P2;PMS_P1;PMS_P2;Temp;Humidity;BMP_temperature;BMP_pressure;BME280_temperature;BME280_humidity;BME280_pressure;Samples;Min_cycle;Max_cycle;Signal;HPM_P1;HPM_P2
2023/06/23 00:01:39;;;;;;;2.10;1.90;;;;;;;;;;7299955;19;140547;-76
2023/06/23 00:04:06;;;;;;;2.38;2.10;;;;;;;;;;7300269;19;140628;-76
2023/06/23 00:06:34;;;;;;;3.08;1.90;;;;;;;;;;7298712;19;141506;-76
2023/06/23 00:09:01;;;;;;;2.58;2.22;;;;;;;;;;7299688;19;142085;-76
2023/06/23 00:11:30;;;;;;;2.00;1.80;;;;;;;;;;7300114;19;140557;-76
2023/06/23 00:13:58;;;;;;;2.33;2.13;;;;;;;;;;7300726;19;140973;-76
2023/06/23 00:16:25;;;;;;;2.10;1.77;;;;;;;;;;7298574;19;141175;-74
2023/06/23 00:18:52;;;;;;;2.42;2.05;;;;;;;;;;7298598;19;141858;-76
2023/06/23 00:21:20;;;;;;;3.05;2.00;;;;;;;;;;7299876;19;140895;-75
2023/06/23 00:26:35;;;;;;;2.50;2.00;;;;;;;;;;7298734;19;140723;-76
2023/06/23 00:29:05;;;;;;;2.08;1.98;;;;;;;;;;7299543;19;140725;-76
2023/06/23 00:31:32;;;;;;;2.95;2.38;;;;;;;;;;7299352;19;140741;-76
2023/06/23 00:33:59;;;;;;;2.47;2.20;;;;;;;;;;7299436;19;140692;-76
2023/06/23 00:36:30;;;;;;;2.40;2.10;;;;;;;;;;7303505;19;141707;-76
2023/06/23 00:38:57;;;;;;;2.10;1.83;;;;;;;;;;7304766;19;140811;-76
2023/06/23 00:41:27;;;;;;;2.50;2.13;;;;;;;;;;7306632;19;140718;-76
2023/06/23 00:43:56;;;;;;;2.42;2.05;;;;;;;;;;7305685;19;140444;-76
2023/06/23 00:46:24;;;;;;;2.00;1.90;;;;;;;;;;7303947;19;141229;-76
2023/06/23 00:48:55;;;;;;;2.50;2.15;;;;;;;;;;7306044;19;142639;-76
2023/06/23 00:51:24;;;;;;;;;;;;;;;;;;7307205;19;140465;-76
2023/06/23 00:53:51;;;;;;;2.20;2.00;;;;;;;;;;7306360;19;140557;-76
2023/06/23 00:56:21;;;;;;;2.40;2.20;;;;;;;;;;7306091;19;141586;-76
2023/06/23 00:58:49;;;;;;;2.35;2.00;;;;;;;;;;7305997;19;142614;-76
2023/06/23 01:01:16;;;;;;;2.30;2.10;;;;;;;;;;7305290;19;140592;-76
2023/06/23 01:03:43;;;;;;;2.42;2.17;;;;;;;;;;7305932;19;140493;-76
2023/06/23 01:06:24;;;;;;;2.22;2.03;;;;;;;;;;7304269;19;141771;-76
2023/06/23 01:08:54;;;;;;;2.25;2.05;;;;;;;;;;7305321;19;141369;-76
2023/06/23 01:11:24;;;;;;;2.72;1.98;;;;;;;;;;7305682;19;141071;-76
2023/06/23 01:13:54;;;;;;;2.10;1.90;;;;;;;;;;7305774;19;140482;-76
2023/06/23 01:16:28;;;;;;;2.30;2.10;;;;;;;;;;7304761;19;140939;-76
2023/06/23 01:19:08;;;;;;;2.10;1.90;;;;;;;;;;7304724;19;141346;-76
2023/06/23 01:21:41;;;;;;;2.33;2.10;;;;;;;;;;7305772;19;140618;-75
2023/06/23 01:24:14;;;;;;;2.38;1.90;;;;;;;;;;7305536;19;140509;-76
2023/06/23 01:26:41;;;;;;;2.15;1.90;;;;;;;;;;7304781;19;141368;-75
2023/06/23 01:29:09;;;;;;;2.22;2.03;;;;;;;;;;7304936;19;142017;-76
2023/06/23 01:31:39;;;;;;;1.92;1.77;;;;;;;;;;7304153;19;140752;-76
2023/06/23 01:34:08;;;;;;;2.22;1.95;;;;;;;;;;7305441;19;140421;-75
2023/06/23 01:36:43;;;;;;;2.20;2.00;;;;;;;;;;7304806;19;140891;-76
2023/06/23 01:39:15;;;;;;;2.17;1.92;;;;;;;;;;7304349;19;142530;-75
2023/06/23 01:41:52;;;;;;;2.35;2.13;;;;;;;;;;7305291;19;140381;-76
2023/06/23 01:44:22;;;;;;;2.20;2.00;;;;;;;;;;7305145;19;140548;-75
2023/06/23 01:46:51;;;;;;;2.22;2.00;;;;;;;;;;7303409;19;140829;-75
2023/06/23 01:49:21;;;;;;;2.10;1.90;;;;;;;;;;7303621;19;141990;-76
2023/06/23 01:51:50;;;;;;;2.40;2.20;;;;;;;;;;7304910;19;140763;-76
2023/06/23 01:54:18;;;;;;;2.92;2.20;;;;;;;;;;7304357;19;140438;-76
2023/06/23 01:56:46;;;;;;;2.38;2.17;;;;;;;;;;7304295;19;141903;-76
2023/06/23 01:59:13;;;;;;;2.30;2.10;;;;;;;;;;7303999;19;142944;-76
2023/06/23 02:01:42;;;;;;;2.90;2.10;;;;;;;;;;7303882;19;140355;-76
2023/06/23 02:04:10;;;;;;;2.20;1.98;;;;;;;;;;7303965;19;140711;-76
2023/06/23 02:06:38;;;;;;;2.80;1.75;;;;;;;;;;7303731;19;141483;-76
2023/06/23 02:09:06;;;;;;;2.10;1.90;;;;;;;;;;7303040;19;142956;-76
2023/06/23 02:11:34;;;;;;;2.58;1.90;;;;;;;;;;7304034;19;140642;-76
2023/06/23 02:14:02;;;;;;;2.08;1.90;;;;;;;;;;7303614;19;140661;-76
2023/06/23 02:16:31;;;;;;;2.03;1.83;;;;;;;;;;7302859;19;142229;-76
2023/06/23 02:19:01;;;;;;;2.20;2.00;;;;;;;;;;7303349;19;141940;-76
2023/06/23 02:21:29;;;;;;;2.58;2.22;;;;;;;;;;7303532;19;140597;-76
2023/06/23 02:23:58;;;;;;;1.95;1.77;;;;;;;;;;7303414;19;140729;-76
2023/06/23 02:26:26;;;;;;;2.05;1.85;;;;;;;;;;7303139;19;141162;-76
2023/06/23 02:28:54;;;;;;;2.50;2.30;;;;;;;;;;7301105;19;142392;-76
2023/06/23 02:31:22;;;;;;;2.40;2.20;;;;;;;;;;7301374;19;140811;-76
2023/06/23 02:33:49;;;;;;;2.25;2.05;;;;;;;;;;7303196;19;141099;-76
2023/06/23 02:36:25;;;;;;;2.40;2.20;;;;;;;;;;7302410;19;140822;-76
2023/06/23 02:38:54;;;;;;;2.15;1.90;;;;;;;;;;7302722;19;142637;-76
2023/06/23 02:41:22;;;;;;;2.20;2.00;;;;;;;;;;7302631;19;140355;-76
2023/06/23 02:43:51;;;;;;;2.30;2.10;;;;;;;;;;7302558;19;140773;-76
2023/06/23 02:46:20;;;;;;;1.98;1.77;;;;;;;;;;7302149;19;141221;-76
2023/06/23 02:48:49;;;;;;;2.45;2.10;;;;;;;;;;7302299;19;140731;-76
2023/06/23 02:51:18;;;;;;;1.77;1.67;;;;;;;;;;7302517;19;140639;-76
2023/06/23 02:53:47;;;;;;;2.20;1.90;;;;;;;;;;7302358;19;140486;-76
2023/06/23 02:56:16;;;;;;;2.50;2.28;;;;;;;;;;7301452;19;141561;-76
2023/06/23 02:58:46;;;;;;;2.00;1.80;;;;;;;;;;7301658;19;142007;-76
2023/06/23 03:01:14;;;;;;;2.42;1.85;;;;;;;;;;7302183;19;140443;-76
2023/06/23 03:03:42;;;;;;;2.33;2.13;;;;;;;;;;7301495;19;140901;-76
2023/06/23 03:06:18;;;;;;;2.53;2.33;;;;;;;;;;7302681;19;141265;-76
2023/06/23 03:08:47;;;;;;;2.10;1.90;;;;;;;;;;7301734;19;142587;-76
2023/06/23 03:11:15;;;;;;;2.38;2.00;;;;;;;;;;7301942;19;140827;-76
2023/06/23 03:13:43;;;;;;;2.25;1.98;;;;;;;;;;7301816;19;140645;-76
2023/06/23 03:16:25;;;;;;;2.38;2.10;;;;;;;;;;7300874;19;143096;-76
2023/06/23 03:18:56;;;;;;;2.20;2.00;;;;;;;;;;7301160;19;142610;-76
2023/06/23 03:21:23;;;;;;;2.20;1.95;;;;;;;;;;7301650;19;140734;-76
2023/06/23 03:23:52;;;;;;;2.30;1.90;;;;;;;;;;7299908;19;140641;-76
2023/06/23 03:26:19;;;;;;;2.10;1.90;;;;;;;;;;7301510;19;140731;-76
2023/06/23 03:28:48;;;;;;;2.40;2.00;;;;;;;;;;7301505;19;140728;-75
2023/06/23 03:31:16;;;;;;;2.20;2.00;;;;;;;;;;7300670;19;140485;-76
2023/06/23 03:33:44;;;;;;;2.30;2.10;;;;;;;;;;7299660;19;140730;-76
2023/06/23 03:36:21;;;;;;;1.92;1.63;;;;;;;;;;7300666;19;141038;-76
2023/06/23 03:38:54;;;;;;;2.15;1.95;;;;;;;;;;7300017;19;142201;-76
2023/06/23 03:41:21;;;;;;;2.25;1.90;;;;;;;;;;7301925;19;140475;-76
2023/06/23 03:43:48;;;;;;;2.15;1.95;;;;;;;;;;7301295;19;140915;-75
2023/06/23 03:46:20;;;;;;;2.65;2.22;;;;;;;;;;7300338;19;140644;-74
2023/06/23 03:48:48;;;;;;;2.45;1.83;;;;;;;;;;7300707;19;142534;-75
2023/06/23 03:51:16;;;;;;;2.22;2.03;;;;;;;;;;7300482;19;140850;-75
2023/06/23 03:53:46;;;;;;;2.25;2.05;;;;;;;;;;7300270;19;140340;-76
2023/06/23 03:56:15;;;;;;;2.53;2.10;;;;;;;;;;7300154;19;141116;-75
2023/06/23 03:58:43;;;;;;;1.77;1.67;;;;;;;;;;7299742;19;142161;-75
2023/06/23 04:01:10;;;;;;;2.05;1.80;;;;;;;;;;7300045;19;141067;-75
2023/06/23 04:03:38;;;;;;;2.22;2.03;;;;;;;;;;7299572;19;140362;-75
2023/06/23 04:06:07;;;;;;;2.17;2.03;;;;;;;;;;7299679;19;141076;-75
2023/06/23 04:08:34;;;;;;;2.10;1.90;;;;;;;;;;7299500;19;141786;-74
2023/06/23 04:11:02;;;;;;;2.50;1.95;;;;;;;;;;7307704;19;141716;-75
2023/06/23 04:13:31;;;;;;;2.33;2.08;;;;;;;;;;7307209;19;140548;-75
2023/06/23 04:16:00;;;;;;;2.03;1.85;;;;;;;;;;7307191;19;140996;-77
2023/06/23 04:18:29;;;;;;;2.10;1.90;;;;;;;;;;7306709;19;142390;-78
2023/06/23 04:20:57;;;;;;;1.77;1.67;;;;;;;;;;7307282;19;140484;-78
2023/06/23 04:23:25;;;;;;;2.13;1.92;;;;;;;;;;7307367;19;140648;-77
2023/06/23 04:25:54;;;;;;;2.00;1.83;;;;;;;;;;7307024;19;141115;-78
2023/06/23 04:28:23;;;;;;;2.30;2.10;;;;;;;;;;7304879;19;142351;-78
2023/06/23 04:30:51;;;;;;;1.92;1.75;;;;;;;;;;7306736;19;141182;-78
2023/06/23 04:33:18;;;;;;;2.30;2.10;;;;;;;;;;7306876;19;140492;-78
2023/06/23 04:35:47;;;;;;;2.20;2.00;;;;;;;;;;7305961;19;142177;-79
2023/06/23 04:38:15;;;;;;;2.47;1.92;;;;;;;;;;7307160;19;140926;-78
2023/06/23 04:40:53;;;;;;;2.95;1.75;;;;;;;;;;7306792;19;140658;-79
2023/06/23 04:43:26;;;;;;;2.13;1.90;;;;;;;;;;7305927;19;140676;-78
2023/06/23 04:45:57;;;;;;;2.10;1.90;;;;;;;;;;7306639;19;140537;-78
2023/06/23 04:48:27;;;;;;;2.00;1.80;;;;;;;;;;7305572;19;142108;-78
2023/06/23 04:50:55;;;;;;;2.30;2.10;;;;;;;;;;7306136;19;140510;-78
2023/06/23 04:53:30;;;;;;;2.30;1.80;;;;;;;;;;7306391;19;141162;-78
2023/06/23 04:56:00;;;;;;;2.65;2.25;;;;;;;;;;7304335;19;140968;-76
2023/06/23 04:58:29;;;;;;;2.92;2.25;;;;;;;;;;7304601;19;142965;-75
2023/06/23 05:00:57;;;;;;;3.35;2.40;;;;;;;;;;7305998;19;140347;-77
2023/06/23 05:03:27;;;;;;;3.92;2.70;;;;;;;;;;7304253;19;140705;-79
2023/06/23 05:05:55;;;;;;;;;;;;;;;;;;7306618;19;142872;-76
2023/06/23 05:08:23;;;;;;;5.60;3.13;;;;;;;;;;7304979;19;152315;-75
2023/06/23 05:10:51;;;;;;;5.00;3.00;;;;;;;;;;7304951;19;140542;-76
2023/06/23 05:13:19;;;;;;;3.20;2.85;;;;;;;;;;7305501;19;140584;-76
2023/06/23 05:15:47;;;;;;;3.30;2.90;;;;;;;;;;7305861;19;141344;-76
2023/06/23 05:18:16;;;;;;;3.63;3.10;;;;;;;;;;7304571;19;142745;-75
2023/06/23 05:20:45;;;;;;;3.75;2.88;;;;;;;;;;7304634;19;140484;-75
2023/06/23 05:23:13;;;;;;;5.28;2.92;;;;;;;;;;7304294;19;140438;-75
2023/06/23 05:25:42;;;;;;;5.53;3.00;;;;;;;;;;7304556;19;141351;-77
2023/06/23 05:28:11;;;;;;;3.78;3.05;;;;;;;;;;7305312;19;142614;-77
2023/06/23 05:30:40;;;;;;;3.10;2.83;;;;;;;;;;7304818;19;140842;-76
2023/06/23 05:33:09;;;;;;;5.50;2.58;;;;;;;;;;7304581;19;140726;-77
2023/06/23 05:35:37;;;;;;;3.42;2.67;;;;;;;;;;7305373;19;140874;-76
2023/06/23 05:38:05;;;;;;;4.43;3.00;;;;;;;;;;7304335;19;140723;-76
2023/06/23 05:40:32;;;;;;;3.83;2.70;;;;;;;;;;7303896;19;140900;-76
2023/06/23 05:43:00;;;;;;;3.50;2.60;;;;;;;;;;7304582;19;140703;-76
2023/06/23 05:45:27;;;;;;;3.40;2.65;;;;;;;;;;7303764;19;140646;-77
2023/06/23 05:47:54;;;;;;;5.28;3.13;;;;;;;;;;7303688;19;141882;-79
2023/06/23 05:50:23;;;;;;;4.15;2.60;;;;;;;;;;7305276;19;140880;-77
2023/06/23 05:52:55;;;;;;;3.17;2.83;;;;;;;;;;7304760;19;140710;-77
2023/06/23 05:55:24;;;;;;;3.15;2.80;;;;;;;;;;7304361;19;141076;-78
2023/06/23 05:57:56;;;;;;;2.88;2.58;;;;;;;;;;7305122;19;142375;-78
2023/06/23 06:00:24;;;;;;;3.10;2.80;;;;;;;;;;7304226;19;140606;-82
2023/06/23 06:02:54;;;;;;;3.78;2.88;;;;;;;;;;7304133;19;140521;-78
2023/06/23 06:07:57;;;;;;;2.67;2.47;;;;;;;;;;7303897;19;140721;-78
2023/06/23 06:13:17;;;;;;;2.75;2.50;;;;;;;;;;7299304;19;140741;-77
2023/06/23 06:15:45;;;;;;;2.85;2.40;;;;;;;;;;7304058;19;140805;-79
2023/06/23 06:18:13;;;;;;;2.78;2.50;;;;;;;;;;7302732;19;142379;-79
2023/06/23 06:20:41;;;;;;;2.60;2.30;;;;;;;;;;7303406;19;140594;-79
2023/06/23 06:23:09;;;;;;;2.97;2.35;;;;;;;;;;7303050;19;140904;-76
2023/06/23 06:26:15;;;;;;;2.72;2.30;;;;;;;;;;7302407;19;140999;-78
2023/06/23 06:28:43;;;;;;;4.10;2.60;;;;;;;;;;7304044;19;142128;-80
2023/06/23 06:31:11;;;;;;;2.60;2.40;;;;;;;;;;7302714;19;140451;-77
2023/06/23 06:43:19;;;;;;;2.60;2.40;;;;;;;;;;7300942;19;141115;-79
2023/06/23 06:54:55;;;;;;;2.75;2.38;;;;;;;;;;7235909;19;143260;-81
2023/06/23 06:57:26;;;;;;;2.88;2.63;;;;;;;;;;7302081;19;141585;-80
2023/06/23 06:59:53;;;;;;;4.43;2.60;;;;;;;;;;7301873;19;140908;-79
2023/06/23 07:05:09;;;;;;;2.65;2.45;;;;;;;;;;7301779;19;140900;-81
2023/06/23 07:07:40;;;;;;;2.90;2.60;;;;;;;;;;7302517;19;140674;-79
2023/06/23 07:10:07;;;;;;;2.60;2.40;;;;;;;;;;7301889;19;140397;-78
2023/06/23 07:12:34;;;;;;;2.72;2.53;;;;;;;;;;7299736;19;141956;-82
2023/06/23 07:15:02;;;;;;;2.40;2.20;;;;;;;;;;7302219;19;140765;-83
2023/06/23 07:17:29;;;;;;;3.53;3.15;;;;;;;;;;7301103;19;140685;-80
2023/06/23 07:19:56;;;;;;;3.15;2.80;;;;;;;;;;7301943;19;140580;-81
2023/06/23 07:22:23;;;;;;;4.03;2.90;;;;;;;;;;7301628;19;141719;-83
2023/06/23 07:24:50;;;;;;;2.83;2.63;;;;;;;;;;7301777;19;140532;-81
2023/06/23 07:27:18;;;;;;;3.25;2.95;;;;;;;;;;7301244;19;140674;-79
2023/06/23 07:29:45;;;;;;;3.90;3.47;;;;;;;;;;7300402;19;141365;-79
2023/06/23 07:32:14;;;;;;;3.13;2.78;;;;;;;;;;7300292;19;142508;-84
2023/06/23 07:34:41;;;;;;;5.07;3.40;;;;;;;;;;7300115;19;141474;-81
2023/06/23 07:37:12;;;;;;;3.90;3.05;;;;;;;;;;7301130;19;141816;-80
2023/06/23 07:39:39;;;;;;;4.72;3.13;;;;;;;;;;7297254;19;140746;-79
2023/06/23 07:42:07;;;;;;;3.65;2.90;;;;;;;;;;7299967;19;142003;-80
2023/06/23 07:44:35;;;;;;;3.15;2.78;;;;;;;;;;7301206;19;140659;-84
2023/06/23 07:47:03;;;;;;;3.67;2.97;;;;;;;;;;7301208;19;140830;-82
2023/06/23 07:49:31;;;;;;;3.70;2.80;;;;;;;;;;7300747;19;140412;-82
2023/06/23 07:52:04;;;;;;;2.95;2.65;;;;;;;;;;7301201;19;141737;-83
2023/06/23 07:54:31;;;;;;;3.80;3.00;;;;;;;;;;7299864;19;140725;-84
2023/06/23 07:57:02;;;;;;;5.32;3.42;;;;;;;;;;7298620;19;140421;-86
2023/06/23 07:59:29;;;;;;;3.50;2.70;;;;;;;;;;7300870;19;141117;-84
2023/06/23 08:01:56;;;;;;;4.13;3.10;;;;;;;;;;7299935;19;141636;-85
2023/06/23 08:04:23;;;;;;;3.53;2.75;;;;;;;;;;7298788;19;140753;-85
2023/06/23 08:06:51;;;;;;;4.03;3.25;;;;;;;;;;7301111;19;140551;-84
2023/06/23 08:09:18;;;;;;;3.72;3.03;;;;;;;;;;7300764;19;141426;-85
2023/06/23 08:14:32;;;;;;;3.60;3.10;;;;;;;;;;7301007;19;140364;-83
2023/06/23 08:17:00;;;;;;;3.80;3.05;;;;;;;;;;7301160;19;140901;-81
2023/06/23 08:19:29;;;;;;;3.35;3.00;;;;;;;;;;7294351;19;141353;-81
2023/06/23 08:21:56;;;;;;;3.15;2.78;;;;;;;;;;7295234;19;142070;-81
2023/06/23 08:24:24;;;;;;;3.40;2.63;;;;;;;;;;7295613;19;140762;-80
2023/06/23 08:26:51;;;;;;;3.28;2.95;;;;;;;;;;7295574;19;140618;-80
2023/06/23 08:29:18;;;;;;;3.22;2.85;;;;;;;;;;7294697;19;141414;-80
2023/06/23 08:31:45;;;;;;;3.22;2.92;;;;;;;;;;7294529;19;144557;-80
2023/06/23 08:34:12;;;;;;;2.90;2.70;;;;;;;;;;7294505;19;140745;-80
2023/06/23 08:36:39;;;;;;;3.55;3.08;;;;;;;;;;7294488;19;140590;-80
2023/06/23 08:39:06;;;;;;;3.35;2.88;;;;;;;;;;7300129;19;142296;-81
2023/06/23 08:44:36;;;;;;;3.42;2.80;;;;;;;;;;7300364;19;140461;-80
2023/06/23 08:47:05;;;;;;;3.20;2.90;;;;;;;;;;7299726;19;140827;-80
2023/06/23 08:49:34;;;;;;;3.17;2.88;;;;;;;;;;7299398;19;141030;-79
2023/06/23 08:52:02;;;;;;;3.05;2.80;;;;;;;;;;7300256;19;142891;-81
2023/06/23 08:54:30;;;;;;;2.75;2.55;;;;;;;;;;7299145;19;140849;-80
2023/06/23 08:56:57;;;;;;;3.20;2.90;;;;;;;;;;7305785;19;140819;-81
2023/06/23 08:59:25;;;;;;;3.03;2.72;;;;;;;;;;7307423;19;140514;-80
2023/06/23 09:07:47;;;;;;;3.42;2.75;;;;;;;;;;7307032;19;140548;-80
2023/06/23 09:10:14;;;;;;;2.83;2.53;;;;;;;;;;7305943;19;141727;-80
2023/06/23 09:25:25;;;;;;;2.83;2.63;;;;;;;;;;7303819;19;145090;-81
2023/06/23 09:30:57;;;;;;;3.28;2.97;;;;;;;;;;7301883;19;143016;-81
2023/06/23 09:33:26;;;;;;;3.40;2.80;;;;;;;;;;7300983;19;140817;-80
2023/06/23 09:35:54;;;;;;;2.70;2.50;;;;;;;;;;7304894;19;143682;-80
2023/06/23 09:38:23;;;;;;;3.28;2.65;;;;;;;;;;7304374;19;140623;-79
2023/06/23 09:41:11;;;;;;;2.80;2.60;;;;;;;;;;7304694;19;140626;-81
2023/06/23 09:43:40;;;;;;;3.50;3.00;;;;;;;;;;7301881;19;140983;-80
2023/06/23 09:46:12;;;;;;;3.20;2.90;;;;;;;;;;7304305;19;140790;-80
2023/06/23 09:48:49;;;;;;;3.05;2.70;;;;;;;;;;7304430;19;141789;-80
2023/06/23 09:51:20;;;;;;;2.80;2.50;;;;;;;;;;7304623;19;140696;-79
2023/06/23 09:53:47;;;;;;;3.03;2.65;;;;;;;;;;7305824;19;140845;-77
2023/06/23 09:56:18;;;;;;;2.58;2.33;;;;;;;;;;7303469;19;141146;-77
2023/06/23 09:58:46;;;;;;;3.50;2.80;;;;;;;;;;7304738;19;140189;-77
2023/06/23 10:03:55;;;;;;;3.00;2.70;;;;;;;;;;7303274;19;140829;-78
2023/06/23 10:06:27;;;;;;;3.17;2.75;;;;;;;;;;7302560;19;142182;-74
2023/06/23 10:08:55;;;;;;;3.28;2.97;;;;;;;;;;7305214;19;140539;-76
2023/06/23 10:11:30;;;;;;;2.70;2.50;;;;;;;;;;7299749;19;141554;-76
2023/06/23 10:13:58;;;;;;;3.30;3.00;;;;;;;;;;7305219;19;142350;-78
2023/06/23 10:16:26;;;;;;;3.70;3.03;;;;;;;;;;7305367;19;140919;-79
2023/06/23 10:18:53;;;;;;;2.60;2.40;;;;;;;;;;7304022;19;140428;-77
2023/06/23 10:21:21;;;;;;;3.20;2.90;;;;;;;;;;7300846;19;141753;-77
2023/06/23 10:23:49;;;;;;;3.90;2.67;;;;;;;;;;7304354;19;142238;-77
2023/06/23 10:26:17;;;;;;;3.28;2.72;;;;;;;;;;7303710;19;142500;-77
2023/06/23 10:28:48;;;;;;;2.90;2.67;;;;;;;;;;7304511;19;140686;-78
2023/06/23 10:31:17;;;;;;;3.88;2.67;;;;;;;;;;7304593;19;140655;-81
2023/06/23 10:33:47;;;;;;;3.45;2.90;;;;;;;;;;7301869;19;140381;-79
2023/06/23 10:36:18;;;;;;;3.00;2.60;;;;;;;;;;7303091;19;141189;-76
2023/06/23 10:38:52;;;;;;;4.40;3.03;;;;;;;;;;7302602;19;141103;-78
2023/06/23 10:41:20;;;;;;;2.72;2.42;;;;;;;;;;7301748;19;140548;-77
2023/06/23 10:43:50;;;;;;;2.70;2.30;;;;;;;;;;7302279;19;141467;-77
2023/06/23 10:46:18;;;;;;;3.07;2.67;;;;;;;;;;7303988;19;141770;-77
2023/06/23 10:48:45;;;;;;;3.15;2.58;;;;;;;;;;7303220;19;140948;-75
2023/06/23 10:51:12;;;;;;;2.95;2.60;;;;;;;;;;7303936;19;140515;-78
2023/06/23 10:54:10;;;;;;;3.30;2.70;;;;;;;;;;7297987;19;140576;-78
2023/06/23 10:56:39;;;;;;;3.25;2.67;;;;;;;;;;7303142;19;141811;-80
2023/06/23 11:02:04;;;;;;;2.88;2.50;;;;;;;;;;7300630;19;140779;-77
2023/06/23 11:04:32;;;;;;;3.47;2.88;;;;;;;;;;7302827;19;140846;-78
2023/06/23 11:07:03;;;;;;;2.75;2.50;;;;;;;;;;7301156;19;141541;-79
2023/06/23 11:09:30;;;;;;;;;;;;;;;;;;7303566;19;140744;-78
2023/06/23 11:25:21;;;;;;;2.83;2.33;;;;;;;;;;7297916;19;142040;-80
2023/06/23 11:28:07;;;;;;;2.88;2.67;;;;;;;;;;7303169;19;140537;-82
2023/06/23 11:30:56;;;;;;;2.83;2.50;;;;;;;;;;7301795;19;142252;-79
2023/06/23 11:33:30;;;;;;;3.13;2.58;;;;;;;;;;7301974;19;140580;-77
2023/06/23 11:36:02;;;;;;;3.13;2.60;;;;;;;;;;7302423;19;140582;-78
2023/06/23 11:38:30;;;;;;;2.53;2.33;;;;;;;;;;7301179;19;140937;-75
2023/06/23 11:40:58;;;;;;;2.95;2.65;;;;;;;;;;7301598;19;141873;-78
2023/06/23 11:43:25;;;;;;;2.65;2.45;;;;;;;;;;7302392;19;140737;-77
2023/06/23 11:45:56;;;;;;;2.63;2.42;;;;;;;;;;7301626;19;140720;-78
2023/06/23 11:48:28;;;;;;;3.20;2.63;;;;;;;;;;7301484;19;141295;-77
2023/06/23 11:54:25;;;;;;;2.47;2.28;;;;;;;;;;7299843;19;140507;-79
2023/06/23 11:57:21;;;;;;;2.72;2.45;;;;;;;;;;7299893;19;141363;-78
2023/06/23 11:59:55;;;;;;;3.08;2.33;;;;;;;;;;7297720;19;141577;-78
2023/06/23 12:02:23;;;;;;;3.00;2.60;;;;;;;;;;7299468;19;142893;-79
2023/06/23 12:04:53;;;;;;;2.45;2.22;;;;;;;;;;7297260;19;142281;-78
2023/06/23 12:10:24;;;;;;;2.53;2.33;;;;;;;;;;7298186;19;140732;-78
2023/06/23 12:12:52;;;;;;;2.75;2.45;;;;;;;;;;7301191;19;140769;-79
2023/06/23 12:15:22;;;;;;;2.83;2.60;;;;;;;;;;7299742;19;140732;-79
2023/06/23 12:17:55;;;;;;;3.10;2.63;;;;;;;;;;7301344;19;140741;-77
2023/06/23 12:20:22;;;;;;;2.50;2.30;;;;;;;;;;7299019;19;141090;-77
2023/06/23 12:22:49;;;;;;;2.30;2.10;;;;;;;;;;7299337;19;142294;-79
2023/06/23 12:25:20;;;;;;;2.40;2.15;;;;;;;;;;7298302;19;140518;-78
2023/06/23 12:30:40;;;;;;;3.22;2.33;;;;;;;;;;7297101;19;140811;-79
2023/06/23 12:33:13;;;;;;;2.53;2.33;;;;;;;;;;7306217;19;140971;-81
2023/06/23 12:35:41;;;;;;;2.90;2.30;;;;;;;;;;7305014;19;140758;-80
2023/06/23 12:41:24;;;;;;;2.90;2.30;;;;;;;;;;7302997;19;140829;-80
2023/06/23 12:43:59;;;;;;;2.38;2.17;;;;;;;;;;7306439;19;143981;-80
2023/06/23 12:46:27;;;;;;;2.47;2.28;;;;;;;;;;7306260;19;140613;-81
2023/06/23 12:55:23;;;;;;;2.50;2.30;;;;;;;;;;7300684;19;141548;-79
2023/06/23 12:57:51;;;;;;;2.83;2.38;;;;;;;;;;7303046;19;140860;-78
2023/06/23 13:00:18;;;;;;;3.05;2.70;;;;;;;;;;7303088;19;142491;-78
2023/06/23 13:02:46;;;;;;;3.17;2.20;;;;;;;;;;7305341;19;141317;-80
2023/06/23 13:05:13;;;;;;;2.75;2.17;;;;;;;;;;7304229;19;141842;-79
2023/06/23 13:07:42;;;;;;;3.08;2.50;;;;;;;;;;7306402;19;140804;-78
2023/06/23 13:10:10;;;;;;;3.30;2.50;;;;;;;;;;7305436;19;140580;-79
2023/06/23 13:12:37;;;;;;;3.88;2.70;;;;;;;;;;7302377;19;140974;-79
2023/06/23 13:15:04;;;;;;;2.63;2.42;;;;;;;;;;7304278;19;142448;-79
2023/06/23 13:17:32;;;;;;;3.15;2.25;;;;;;;;;;7304588;19;140585;-79
2023/06/23 13:19:59;;;;;;;2.40;2.20;;;;;;;;;;7304385;19;141056;-78
2023/06/23 13:22:26;;;;;;;2.58;2.25;;;;;;;;;;7303981;19;141047;-79
2023/06/23 13:24:57;;;;;;;2.38;2.10;;;;;;;;;;7302663;19;142765;-79
2023/06/23 13:27:24;;;;;;;;;;;;;;;;;;7305900;19;140583;-79
2023/06/23 13:29:52;;;;;;;3.28;2.22;;;;;;;;;;7302937;19;140498;-89
2023/06/23 13:32:23;;;;;;;3.15;2.38;;;;;;;;;;7302237;19;140544;31
2023/06/23 13:34:50;;;;;;;2.90;2.35;;;;;;;;;;7304309;19;142138;-80
2023/06/23 13:37:17;;;;;;;2.58;2.38;;;;;;;;;;7304002;19;140683;-78
2023/06/23 13:39:45;;;;;;;3.00;2.38;;;;;;;;;;7305710;19;140805;-78
2023/06/23 13:42:11;;;;;;;3.15;2.45;;;;;;;;;;7303110;19;142361;-76
2023/06/23 13:44:38;;;;;;;3.28;2.65;;;;;;;;;;7305076;19;142036;-76
2023/06/23 13:47:06;;;;;;;3.95;2.65;;;;;;;;;;7304994;19;140644;-76
2023/06/23 13:49:33;;;;;;;3.88;2.78;;;;;;;;;;7304847;19;140464;-79
2023/06/23 13:52:02;;;;;;;6.85;3.80;;;;;;;;;;7303475;19;140583;-79
2023/06/23 13:54:30;;;;;;;6.63;3.53;;;;;;;;;;7304460;19;141685;-83
2023/06/23 13:57:00;;;;;;;5.00;3.50;;;;;;;;;;7304077;19;140838;-79
2023/06/23 13:59:43;;;;;;;5.43;3.30;;;;;;;;;;7303625;19;140600;-79
2023/06/23 14:05:34;;;;;;;5.03;2.92;;;;;;;;;;7301763;19;140364;-79
2023/06/23 14:08:25;;;;;;;4.55;3.00;;;;;;;;;;7303535;19;140688;-79
2023/06/23 14:10:52;;;;;;;5.40;3.10;;;;;;;;;;7302984;19;140726;-79
2023/06/23 14:16:28;;;;;;;6.03;3.25;;;;;;;;;;7299001;19;140836;-79
2023/06/23 14:18:56;;;;;;;3.45;3.08;;;;;;;;;;7304818;19;140846;-79
2023/06/23 14:21:23;;;;;;;5.15;3.38;;;;;;;;;;7304178;19;140770;-79
2023/06/23 14:23:50;;;;;;;4.95;3.00;;;;;;;;;;7302173;19;141075;-80
2023/06/23 14:26:18;;;;;;;5.85;2.90;;;;;;;;;;7303649;19;141995;-78
2023/06/23 14:28:46;;;;;;;3.45;3.00;;;;;;;;;;7301349;19;140489;-80
2023/06/23 14:34:26;;;;;;;5.10;3.30;;;;;;;;;;7299309;19;142766;-79
2023/06/23 14:36:53;;;;;;;4.68;3.28;;;;;;;;;;7303302;19;140893;-80
2023/06/23 14:39:21;;;;;;;3.30;2.95;;;;;;;;;;7304188;19;140399;-79
2023/06/23 14:41:48;;;;;;;4.43;2.97;;;;;;;;;;7302006;19;140708;-79
2023/06/23 14:44:15;;;;;;;4.68;3.38;;;;;;;;;;7302362;19;141546;-79
2023/06/23 14:46:42;;;;;;;3.83;3.28;;;;;;;;;;7302658;19;142498;-79
2023/06/23 14:49:09;;;;;;;4.63;3.15;;;;;;;;;;7301848;19;140491;-79
2023/06/23 14:51:36;;;;;;;4.20;2.90;;;;;;;;;;7302503;19;140606;-79
2023/06/23 14:54:03;;;;;;;4.40;3.03;;;;;;;;;;7301057;19;141166;-79
2023/06/23 14:56:31;;;;;;;4.68;2.90;;;;;;;;;;7304187;19;141145;-79
2023/06/23 14:58:58;;;;;;;3.90;2.97;;;;;;;;;;7304269;19;140641;-79
2023/06/23 15:01:25;;;;;;;4.68;3.03;;;;;;;;;;7305057;19;140937;-79
2023/06/23 15:03:52;;;;;;;4.13;2.90;;;;;;;;;;7305443;19;141174;-79
2023/06/23 15:06:19;;;;;;;3.53;2.95;;;;;;;;;;7306224;19;141080;-79
2023/06/23 15:08:47;;;;;;;3.22;2.78;;;;;;;;;;7315980;19;140503;-79
2023/06/23 15:11:15;;;;;;;4.57;2.97;;;;;;;;;;7319717;19;140127;-79
2023/06/23 15:13:42;;;;;;;4.65;3.10;;;;;;;;;;7320691;19;140403;-78
2023/06/23 15:16:09;;;;;;;4.15;2.90;;;;;;;;;;7315038;19;143029;-78
2023/06/23 15:18:36;;;;;;;3.97;2.80;;;;;;;;;;7320764;19;140118;-78
2023/06/23 15:21:03;;;;;;;4.45;3.10;;;;;;;;;;7305402;19;140542;-78
2023/06/23 15:23:31;;;;;;;3.75;2.80;;;;;;;;;;7306216;19;140503;-78
2023/06/23 15:25:58;;;;;;;3.63;2.88;;;;;;;;;;7306103;19;142105;-79
2023/06/23 15:28:27;;;;;;;3.30;2.78;;;;;;;;;;7302502;19;140583;-79
2023/06/23 15:30:58;;;;;;;4.43;3.10;;;;;;;;;;7302659;19;140551;-79
2023/06/23 15:33:29;;;;;;;3.92;2.78;;;;;;;;;;7302785;19;141628;-79
2023/06/23 15:35:56;;;;;;;3.67;2.80;;;;;;;;;;7300498;19;142057;-79
2023/06/23 15:41:09;;;;;;;4.93;3.08;;;;;;;;;;7303674;19;140395;-81
2023/06/23 15:43:37;;;;;;;3.38;2.67;;;;;;;;;;7301589;19;140690;-80
2023/06/23 15:49:11;;;;;;;4.35;2.78;;;;;;;;;;7296513;19;142674;-81
2023/06/23 15:51:42;;;;;;;3.70;2.67;;;;;;;;;;7301586;19;140565;-81
2023/06/23 15:54:11;;;;;;;3.85;2.60;;;;;;;;;;7300205;19;141192;-78
2023/06/23 15:59:45;;;;;;;4.85;3.00;;;;;;;;;;7300524;19;140797;-79
2023/06/23 16:02:14;;;;;;;4.47;3.10;;;;;;;;;;7301558;19;140391;-81
2023/06/23 16:04:41;;;;;;;3.53;2.65;;;;;;;;;;7303543;19;140654;-79
2023/06/23 16:07:09;;;;;;;4.03;2.85;;;;;;;;;;7308121;19;142659;-88
2023/06/23 16:09:37;;;;;;;3.53;2.70;;;;;;;;;;7307249;19;140526;-86
2023/06/23 16:14:56;;;;;;;3.67;2.50;;;;;;;;;;7309334;19;140977;-79
2023/06/23 16:17:23;;;;;;;3.45;2.78;;;;;;;;;;7306656;19;141377;-79
2023/06/23 16:19:51;;;;;;;3.75;2.63;;;;;;;;;;7306036;19;141977;-81
2023/06/23 16:22:18;;;;;;;4.47;2.90;;;;;;;;;;7307758;19;140630;-76
2023/06/23 16:24:45;;;;;;;3.72;2.65;;;;;;;;;;7307382;19;140572;-76
2023/06/23 16:27:12;;;;;;;4.20;3.00;;;;;;;;;;7308522;19;142646;-76
2023/06/23 16:29:39;;;;;;;3.53;2.67;;;;;;;;;;7307990;19;140550;-76
2023/06/23 16:32:06;;;;;;;4.22;2.83;;;;;;;;;;7305684;19;141208;-76
2023/06/23 16:34:34;;;;;;;3.88;2.83;;;;;;;;;;7307549;19;140937;-75
2023/06/23 16:37:14;;;;;;;3.78;2.90;;;;;;;;;;7304304;19;140893;-76
2023/06/23 16:39:41;;;;;;;4.55;2.95;;;;;;;;;;7305529;19;140772;-76